Fort Story, Virginia
Current Conditions -  °F | °C
As of 10:56 AM on Saturday 22 Nov 2014 (Local Time) from KNTU Reporting Station
Broken Clouds Broken Clouds  
Wind Chill:   Ceiling: 25000
Heat Index:   Visibility: 10mi
Dew Point: -7°   Wind: 9mph
Humidity: 33%   Direction: 200°SSW
Pressure: 30.54"   Gusts: NA
Location:  36.922°N, 76.0108°W
Report Text: KNTU 221556Z 20008KT 10SM BKN250 09/M07 A3054 RMK AO2 SLP345 T00891067
Loading
Personal Weather Stations






























Interactive Weather Map New forecast layout! Learn more

10-Day Weather Forecast

Advertisements
Track Severe Weather on mobile